Delta A333 at Amsterdam on Jan 12th 2023, touched down short of runway

Last Update: January 19, 2023 / 17:12:14 GMT/Zulu time

Bookmark this article
Incident Facts

Date of incident
Jan 12, 2023

Classification
Incident

Flight number
DL-134

Aircraft Registration
N802NW

Aircraft Type
Airbus A330-300

ICAO Type Designator
A333

Airport ICAO Code
EHAM

A Delta Airlines Airbus A330-300, registration N802NW performing flight DL-134 from Detroit,MI (USA) to Amsterdam (Netherlands), was on final approach to Amsterdam's runway 22 when the main landing gear touched down ahead of the paved surface of the runway and damaged two runway threshold lights at 07:52L (06:52Z). The aircraft rolled out without further incident and taxied to the apron.

Netherland's DSB have dispatched a team of investigators on site.

The airport reported, the aircraft touched down with its main gear on grass ahead of the runway, a number of threshold lights were damaged forcing the closure of the runway for about an hour for repairs of the runway lighting.

The occurrence aircraft is still on the ground in Amsterdam about 12 hours after landing, it's next flight to Boston,MA (USA) DL-259 was cancelled.

On Jan 16th 2023 the FAA reported: "AIRCRAFT LANDED EARLY SHORT OF THE THRESHOLD DAMAGING RUNWAY LIGHTS, AMSTERDAM, DENMARK.", reported there was UNKNOWN damage and rated the occurrence an incident.

On Jan 19th 2023 the DSB reported the aircraft touched down about 12 feet short of the runway threshold. The occurrence was rated a serious incident and is being investigated by the DSB.

Metars:
EHAM 121055Z 24024G34KT 9000 -DZRA FEW009 BKN011 BKN017 12/10 Q1003 TEMPO 7000=
EHAM 121025Z 24024G34KT 210V280 9999 FEW010 SCT012 BKN017 12/10 Q1003 TEMPO 7000 -DZ BKN014=
EHAM 120955Z 24025G38KT 210V270 9999 FEW010 SCT013 BKN017 12/10 Q1002 NOSIG=
EHAM 120925Z 24025KT 210V270 9999 FEW011 SCT013 BKN017 12/10 Q1002 NOSIG=
EHAM 120855Z 24026KT 210V270 9999 FEW011 SCT017 BKN021 12/10 Q1002 TEMPO BKN017=
EHAM 120825Z 24023G34KT 210V290 9999 SCT012 SCT017 BKN021 12/10 Q1001 TEMPO BKN017=
EHAM 120755Z 24027G38KT 9999 FEW010 SCT012 BKN017 12/10 Q1001 TEMPO BKN022=
EHAM 120725Z 24027G39KT 9999 FEW009 SCT012 BKN016 11/10 Q1001 TEMPO 6000 -DZ BKN014=
EHAM 120655Z 24027G38KT 6000 -DZ FEW007 SCT009 BKN011 11/10 Q1000 TEMPO 8000 BKN015=
EHAM 120625Z 24028KT 210V270 5000 -DZRA FEW007 SCT008 BKN010 11/10 Q1000 TEMPO 8000=
EHAM 120555Z 23028KT 200V260 4500 -DZRA FEW006 SCT007 BKN010 10/10 Q1000 TEMPO 6000=
EHAM 120525Z 22023KT 4500 -RADZ FEW006 BKN009 09/09 Q1000 TEMPO 8000 BKN010=
EHAM 120455Z 20026G36KT 3500 RA FEW007 BKN008 09/08 Q1000 TEMPO 5000 BKN010=
EHAM 120425Z 20024KT 170V230 4500 RA FEW008 BKN010 09/08 Q1001 TEMPO 5000 BKN008=
EHAM 120355Z 19020KT 7000 RA FEW005 BKN016 BKN035 09/08 Q1001 TEMPO BKN014=
Aircraft Registration Data
Registration mark
N802NW
Country of Registration
United States
Date of Registration
Kppjlpknmjkqck n Subscribe to unlock
TCDS Ident. No.
Manufacturer
AIRBUS
Aircraft Model / Type
A330-323
Number of Seats
ICAO Aircraft Type
A333
Year of Manufacture
Serial Number
Aircraft Address / Mode S Code (HEX)
Engine Count
Engine Manufacturer
Engine Model
Engine Type
Pounds of Thrust
Main Owner
MdmAkpcpehnifAAiegbAnp Aphfqfejpbnmecnl ebknbkj AmnnkibmiiknnpAikbdflkqn fidmnn fiifqjkikjfdAg pjmijAAgi fAllccifbnhc Subscribe to unlock
Incident Facts

Date of incident
Jan 12, 2023

Classification
Incident

Flight number
DL-134

Aircraft Registration
N802NW

Aircraft Type
Airbus A330-300

ICAO Type Designator
A333

Airport ICAO Code
EHAM

This article is published under license from Avherald.com. © of text by Avherald.com.
Article source

You can read 2 more free articles without a subscription.

Subscribe now and continue reading without any limits!

Are you a subscriber? Login
Subscribe

Read unlimited articles and receive our daily update briefing. Gain better insights into what is happening in commercial aviation safety.

Send tip

Support AeroInside by sending a small tip amount.

Related articles

Newest articles

Subscribe today

Are you researching aviation incidents? Get access to AeroInside Insights, unlimited read access and receive the daily newsletter.

Pick your plan and subscribe

Partner

Blockaviation logo

A new way to document and demonstrate airworthiness compliance and aircraft value. Find out more.

Virtual Speech logo

ELITE Simulation Solutions is a leading global provider of Flight Simulation Training Devices, IFR training software as well as flight controls and related services. Find out more.

AeroInside Blog
Popular aircraft
Airbus A320
Boeing 737-800
Boeing 737-800 MAX
Popular airlines
American Airlines
United
Delta
Air Canada
Lufthansa
British Airways